This is the latest recevied weather packets stored in our database for station/object KF6ILA. If no packets are shown the sender has not sent any weather packets the latest 10 day(s).
| Time | Temp. | Humidity | Pressure | Rain* | Wind** | Luminosity | Snow |
|---|---|---|---|---|---|---|---|
| 1787517461 | 35.56° C | 23% | 1017.8 hPa | 0 mm | - | 1035 W/m² | - |
| 1787516273 | 34.44° C | 24% | 1017.9 hPa | 0 mm | - | 540 W/m² | - |
| 1787515679 | 35° C | 23% | 1018.1 hPa | 0 mm | - | 540 W/m² | - |
| 1787515382 | 34.44° C | 24% | 1017.9 hPa | 0 mm | - | 650 W/m² | - |
| 1787515085 | 34.44° C | 22% | 1017.9 hPa | 0 mm | - | 823 W/m² | - |
| 1787514788 | 33.89° C | 23% | 1018 hPa | 0 mm | - | 540 W/m² | - |
| 1787514491 | 33.89° C | 23% | 1018.1 hPa | 0 mm | - | 540 W/m² | - |
| 1787514194 | 34.44° C | 23% | 1018.1 hPa | 0 mm | - | 710 W/m² | - |
| 1787513303 | 35° C | 23% | 1018.2 hPa | 0 mm | - | 531 W/m² | - |
| 1787512709 | 35° C | 22% | 1018.2 hPa | 0 mm | - | 932 W/m² | - |
| 1787512115 | 35° C | 23% | 1018.4 hPa | 0 mm | - | 1086 W/m² | - |
| 1787511818 | 34.44° C | 22% | 1018.4 hPa | 0 mm | - | 1039 W/m² | - |
| 1787510928 | 35° C | 22% | 1018.4 hPa | 0 mm | - | 881 W/m² | - |
| 1787508848 | 36.11° C | 21% | 1018.8 hPa | 0 mm | - | 911 W/m² | - |
| 1787508551 | 35.56° C | 21% | 1018.7 hPa | 0 mm | - | 907 W/m² | - |
| 1787506769 | 33.89° C | 23% | 1018.8 hPa | 0 mm | - | 853 W/m² | - |
| 1787504393 | 32.78° C | 24% | 1018.8 hPa | 0 mm | - | 744 W/m² | - |
| 1787503799 | 32.22° C | 25% | 1018.8 hPa | 0 mm | - | 714 W/m² | - |
| 1787502908 | 31.67° C | 26% | 1018.7 hPa | 0 mm | - | 682 W/m² | - |
| 1787501126 | 31.11° C | 25% | 1018.6 hPa | 0 mm | - | 564 W/m² | - |
| 1787500829 | 31.11° C | 25% | 1018.6 hPa | 0 mm | - | 547 W/m² | - |
| 1787500235 | 30.56° C | 25% | 1018.6 hPa | 0 mm | - | 513 W/m² | - |
| 1787499047 | - | 27% | 1018.5 hPa | 0 mm | - | 441 W/m² | - |
| 1787498750 | 28.89° C | 30% | 1018.5 hPa | 0 mm | - | 424 W/m² | - |
| 1787498156 | 28.89° C | 31% | 1018.3 hPa | 0 mm | - | 388 W/m² | - |
* Rain latest hour (hover to see other rain measurements)
** Current wind speed in m/s (hover to see current wind gust speed)